sensor_id;sensor_type;location;lat;lon;timestamp;temperature;humidity
40822;DHT22;26542;50.836;5.356;2023-03-08T00:01:26;3.80;99.90
40822;DHT22;26542;50.836;5.356;2023-03-08T00:03:55;3.80;99.90
40822;DHT22;26542;50.836;5.356;2023-03-08T00:06:22;3.80;99.90
40822;DHT22;26542;50.836;5.356;2023-03-08T00:08:57;3.80;99.90
40822;DHT22;26542;50.836;5.356;2023-03-08T00:11:23;3.70;99.90
40822;DHT22;26542;50.836;5.356;2023-03-08T00:13:51;3.70;99.90
40822;DHT22;26542;50.836;5.356;2023-03-08T00:16:20;3.60;99.90
40822;DHT22;26542;50.836;5.356;2023-03-08T00:18:46;3.60;99.90
40822;DHT22;26542;50.836;5.356;2023-03-08T00:21:16;3.60;99.90
40822;DHT22;26542;50.836;5.356;2023-03-08T00:23:45;3.60;99.90
40822;DHT22;26542;50.836;5.356;2023-03-08T00:26:13;3.60;99.90
40822;DHT22;26542;50.836;5.356;2023-03-08T00:28:39;3.60;99.90
40822;DHT22;26542;50.836;5.356;2023-03-08T00:31:11;3.70;99.90
40822;DHT22;26542;50.836;5.356;2023-03-08T00:33:41;3.70;99.90
40822;DHT22;26542;50.836;5.356;2023-03-08T00:36:17;3.70;99.90
40822;DHT22;26542;50.836;5.356;2023-03-08T00:38:47;3.70;99.90
40822;DHT22;26542;50.836;5.356;2023-03-08T00:41:13;3.70;99.90
40822;DHT22;26542;50.836;5.356;2023-03-08T00:43:39;3.70;99.90
40822;DHT22;26542;50.836;5.356;2023-03-08T00:46:07;3.70;99.90
40822;DHT22;26542;50.836;5.356;2023-03-08T00:48:35;3.80;99.90
40822;DHT22;26542;50.836;5.356;2023-03-08T00:51:03;3.70;99.90
40822;DHT22;26542;50.836;5.356;2023-03-08T00:53:28;3.90;99.90
40822;DHT22;26542;50.836;5.356;2023-03-08T00:55:59;3.70;99.90
40822;DHT22;26542;50.836;5.356;2023-03-08T00:58:28;3.70;99.90
40822;DHT22;26542;50.836;5.356;2023-03-08T01:00:55;3.60;99.90
40822;DHT22;26542;50.836;5.356;2023-03-08T01:03:25;3.70;99.90
40822;DHT22;26542;50.836;5.356;2023-03-08T01:05:53;3.70;99.90
40822;DHT22;26542;50.836;5.356;2023-03-08T01:08:20;3.80;99.90
40822;DHT22;26542;50.836;5.356;2023-03-08T01:10:51;3.70;99.90
40822;DHT22;26542;50.836;5.356;2023-03-08T01:13:19;3.70;99.90
40822;DHT22;26542;50.836;5.356;2023-03-08T01:15:48;3.70;99.90
40822;DHT22;26542;50.836;5.356;2023-03-08T01:18:16;3.70;99.90
40822;DHT22;26542;50.836;5.356;2023-03-08T01:20:42;3.70;99.90
40822;DHT22;26542;50.836;5.356;2023-03-08T01:23:10;3.70;99.90
40822;DHT22;26542;50.836;5.356;2023-03-08T01:25:38;3.70;99.90
40822;DHT22;26542;50.836;5.356;2023-03-08T01:28:06;3.70;99.90
40822;DHT22;26542;50.836;5.356;2023-03-08T01:30:32;3.70;99.90
40822;DHT22;26542;50.836;5.356;2023-03-08T01:32:57;3.70;99.90
40822;DHT22;26542;50.836;5.356;2023-03-08T01:35:25;3.70;99.90
40822;DHT22;26542;50.836;5.356;2023-03-08T01:37:51;3.70;99.90
40822;DHT22;26542;50.836;5.356;2023-03-08T01:40:20;3.70;99.90
40822;DHT22;26542;50.836;5.356;2023-03-08T01:42:48;3.70;99.90
40822;DHT22;26542;50.836;5.356;2023-03-08T01:48:23;3.80;99.90
40822;DHT22;26542;50.836;5.356;2023-03-08T01:50:52;3.90;99.90
40822;DHT22;26542;50.836;5.356;2023-03-08T01:53:18;3.90;99.90
40822;DHT22;26542;50.836;5.356;2023-03-08T01:55:45;3.90;99.90
40822;DHT22;26542;50.836;5.356;2023-03-08T01:58:14;3.90;99.90
40822;DHT22;26542;50.836;5.356;2023-03-08T02:00:44;3.70;99.90
40822;DHT22;26542;50.836;5.356;2023-03-08T02:03:10;3.80;99.90
40822;DHT22;26542;50.836;5.356;2023-03-08T02:05:41;3.80;99.90
40822;DHT22;26542;50.836;5.356;2023-03-08T02:08:07;3.80;99.90
40822;DHT22;26542;50.836;5.356;2023-03-08T02:10:36;3.80;99.90
40822;DHT22;26542;50.836;5.356;2023-03-08T02:13:06;3.90;99.90
40822;DHT22;26542;50.836;5.356;2023-03-08T02:15:34;3.90;99.90
40822;DHT22;26542;50.836;5.356;2023-03-08T02:17:59;3.80;99.90
40822;DHT22;26542;50.836;5.356;2023-03-08T02:20:37;3.70;99.90
40822;DHT22;26542;50.836;5.356;2023-03-08T02:23:13;3.80;99.90
40822;DHT22;26542;50.836;5.356;2023-03-08T02:25:39;3.70;99.90
40822;DHT22;26542;50.836;5.356;2023-03-08T02:28:06;3.80;99.90
40822;DHT22;26542;50.836;5.356;2023-03-08T02:30:35;3.90;99.90
40822;DHT22;26542;50.836;5.356;2023-03-08T02:33:03;3.70;99.90
40822;DHT22;26542;50.836;5.356;2023-03-08T02:35:31;3.80;99.90
40822;DHT22;26542;50.836;5.356;2023-03-08T02:37:57;3.70;99.90
40822;DHT22;26542;50.836;5.356;2023-03-08T02:40:23;3.70;99.90
40822;DHT22;26542;50.836;5.356;2023-03-08T02:42:48;3.70;99.90
40822;DHT22;26542;50.836;5.356;2023-03-08T02:45:17;3.70;99.90
40822;DHT22;26542;50.836;5.356;2023-03-08T02:47:42;3.80;99.90
40822;DHT22;26542;50.836;5.356;2023-03-08T02:50:08;3.80;99.90
40822;DHT22;26542;50.836;5.356;2023-03-08T02:52:34;3.80;99.90
40822;DHT22;26542;50.836;5.356;2023-03-08T02:55:03;3.80;99.90
40822;DHT22;26542;50.836;5.356;2023-03-08T02:57:28;3.80;99.90
40822;DHT22;26542;50.836;5.356;2023-03-08T02:59:56;3.70;99.90
40822;DHT22;26542;50.836;5.356;2023-03-08T03:02:24;3.70;99.90
40822;DHT22;26542;50.836;5.356;2023-03-08T03:04:50;3.70;99.90
40822;DHT22;26542;50.836;5.356;2023-03-08T03:07:16;3.30;99.90
40822;DHT22;26542;50.836;5.356;2023-03-08T03:09:41;3.60;99.90
40822;DHT22;26542;50.836;5.356;2023-03-08T03:12:07;3.60;99.90
40822;DHT22;26542;50.836;5.356;2023-03-08T03:14:33;3.70;99.90
40822;DHT22;26542;50.836;5.356;2023-03-08T03:16:58;3.70;99.90
40822;DHT22;26542;50.836;5.356;2023-03-08T03:19:26;3.60;99.90
40822;DHT22;26542;50.836;5.356;2023-03-08T03:21:52;3.60;99.90
40822;DHT22;26542;50.836;5.356;2023-03-08T03:24:17;3.60;99.90
40822;DHT22;26542;50.836;5.356;2023-03-08T03:26:43;3.50;99.90
40822;DHT22;26542;50.836;5.356;2023-03-08T03:29:09;3.50;99.90
40822;DHT22;26542;50.836;5.356;2023-03-08T03:31:37;3.50;99.90
40822;DHT22;26542;50.836;5.356;2023-03-08T03:34:03;3.50;99.90
40822;DHT22;26542;50.836;5.356;2023-03-08T03:36:30;3.50;99.90
40822;DHT22;26542;50.836;5.356;2023-03-08T03:38:57;3.50;99.90
40822;DHT22;26542;50.836;5.356;2023-03-08T03:41:25;3.50;99.90
40822;DHT22;26542;50.836;5.356;2023-03-08T03:43:53;3.60;99.90
40822;DHT22;26542;50.836;5.356;2023-03-08T03:46:22;3.60;99.90
40822;DHT22;26542;50.836;5.356;2023-03-08T03:48:48;3.50;99.90
40822;DHT22;26542;50.836;5.356;2023-03-08T03:51:15;3.50;99.90
40822;DHT22;26542;50.836;5.356;2023-03-08T03:53:41;3.50;99.90
40822;DHT22;26542;50.836;5.356;2023-03-08T03:56:16;3.60;99.90
40822;DHT22;26542;50.836;5.356;2023-03-08T03:58:43;3.50;99.90
40822;DHT22;26542;50.836;5.356;2023-03-08T04:01:24;3.50;99.90
40822;DHT22;26542;50.836;5.356;2023-03-08T04:03:51;3.40;99.90
40822;DHT22;26542;50.836;5.356;2023-03-08T04:06:20;3.40;99.90
40822;DHT22;26542;50.836;5.356;2023-03-08T04:08:46;3.40;99.90
40822;DHT22;26542;50.836;5.356;2023-03-08T04:11:14;3.40;99.90
40822;DHT22;26542;50.836;5.356;2023-03-08T04:13:41;3.30;99.90
40822;DHT22;26542;50.836;5.356;2023-03-08T04:16:09;3.20;99.90
40822;DHT22;26542;50.836;5.356;2023-03-08T04:18:35;3.20;99.90
40822;DHT22;26542;50.836;5.356;2023-03-08T04:21:03;3.20;99.90
40822;DHT22;26542;50.836;5.356;2023-03-08T04:23:28;3.20;99.90
40822;DHT22;26542;50.836;5.356;2023-03-08T04:25:57;3.20;99.90
40822;DHT22;26542;50.836;5.356;2023-03-08T04:28:23;3.20;99.90
40822;DHT22;26542;50.836;5.356;2023-03-08T04:30:50;3.10;99.90
40822;DHT22;26542;50.836;5.356;2023-03-08T04:33:16;3.00;99.90
40822;DHT22;26542;50.836;5.356;2023-03-08T04:35:42;2.90;99.90
40822;DHT22;26542;50.836;5.356;2023-03-08T04:38:10;2.90;99.90
40822;DHT22;26542;50.836;5.356;2023-03-08T04:40:36;2.90;99.90
40822;DHT22;26542;50.836;5.356;2023-03-08T04:43:22;2.80;99.90
40822;DHT22;26542;50.836;5.356;2023-03-08T04:45:48;2.70;99.90
40822;DHT22;26542;50.836;5.356;2023-03-08T04:48:13;2.70;99.90
40822;DHT22;26542;50.836;5.356;2023-03-08T04:50:39;2.70;99.90
40822;DHT22;26542;50.836;5.356;2023-03-08T04:53:05;2.70;99.90
40822;DHT22;26542;50.836;5.356;2023-03-08T04:55:32;2.70;99.90
40822;DHT22;26542;50.836;5.356;2023-03-08T04:57:58;3.00;99.90
40822;DHT22;26542;50.836;5.356;2023-03-08T05:00:24;2.70;99.90
40822;DHT22;26542;50.836;5.356;2023-03-08T05:02:49;2.60;99.90
40822;DHT22;26542;50.836;5.356;2023-03-08T05:05:15;2.60;99.90
40822;DHT22;26542;50.836;5.356;2023-03-08T05:07:43;2.60;99.90
40822;DHT22;26542;50.836;5.356;2023-03-08T05:10:09;2.70;99.90
40822;DHT22;26542;50.836;5.356;2023-03-08T05:12:35;2.60;99.90
40822;DHT22;26542;50.836;5.356;2023-03-08T05:15:00;2.60;99.90
40822;DHT22;26542;50.836;5.356;2023-03-08T05:17:26;2.60;99.90
40822;DHT22;26542;50.836;5.356;2023-03-08T05:19:52;2.70;99.90
40822;DHT22;26542;50.836;5.356;2023-03-08T05:22:17;2.70;99.90
40822;DHT22;26542;50.836;5.356;2023-03-08T05:24:43;2.70;99.90
40822;DHT22;26542;50.836;5.356;2023-03-08T05:27:10;2.70;99.90
40822;DHT22;26542;50.836;5.356;2023-03-08T05:29:36;2.80;99.90
40822;DHT22;26542;50.836;5.356;2023-03-08T05:32:02;2.70;99.90
40822;DHT22;26542;50.836;5.356;2023-03-08T05:34:28;2.80;99.90
40822;DHT22;26542;50.836;5.356;2023-03-08T05:36:56;2.90;99.90
40822;DHT22;26542;50.836;5.356;2023-03-08T05:39:21;2.70;99.90
40822;DHT22;26542;50.836;5.356;2023-03-08T05:41:47;2.70;99.90
40822;DHT22;26542;50.836;5.356;2023-03-08T05:44:13;2.60;99.90
40822;DHT22;26542;50.836;5.356;2023-03-08T05:46:39;2.60;99.90
40822;DHT22;26542;50.836;5.356;2023-03-08T05:49:07;2.70;99.90
40822;DHT22;26542;50.836;5.356;2023-03-08T05:51:35;2.60;99.90
40822;DHT22;26542;50.836;5.356;2023-03-08T05:54:03;2.60;99.90
40822;DHT22;26542;50.836;5.356;2023-03-08T05:56:35;2.60;99.90
40822;DHT22;26542;50.836;5.356;2023-03-08T05:59:01;2.40;99.90
40822;DHT22;26542;50.836;5.356;2023-03-08T06:01:32;2.30;99.90
40822;DHT22;26542;50.836;5.356;2023-03-08T06:03:58;2.40;99.90
40822;DHT22;26542;50.836;5.356;2023-03-08T06:06:25;2.40;99.90
40822;DHT22;26542;50.836;5.356;2023-03-08T06:08:51;2.40;99.90
40822;DHT22;26542;50.836;5.356;2023-03-08T06:11:17;2.50;99.90
40822;DHT22;26542;50.836;5.356;2023-03-08T06:13:43;2.50;99.90
40822;DHT22;26542;50.836;5.356;2023-03-08T06:16:10;2.40;99.90
40822;DHT22;26542;50.836;5.356;2023-03-08T06:18:42;2.30;99.90
40822;DHT22;26542;50.836;5.356;2023-03-08T06:21:19;2.30;99.90
40822;DHT22;26542;50.836;5.356;2023-03-08T06:23:46;2.30;99.90
40822;DHT22;26542;50.836;5.356;2023-03-08T06:26:12;2.40;99.90
40822;DHT22;26542;50.836;5.356;2023-03-08T06:28:40;2.40;99.90
40822;DHT22;26542;50.836;5.356;2023-03-08T06:31:11;2.40;99.90
40822;DHT22;26542;50.836;5.356;2023-03-08T06:33:37;2.60;99.90
40822;DHT22;26542;50.836;5.356;2023-03-08T06:36:07;2.60;99.90
40822;DHT22;26542;50.836;5.356;2023-03-08T06:38:37;2.50;99.90
40822;DHT22;26542;50.836;5.356;2023-03-08T06:41:04;2.60;99.90
40822;DHT22;26542;50.836;5.356;2023-03-08T06:43:30;2.60;99.90
40822;DHT22;26542;50.836;5.356;2023-03-08T06:45:56;2.60;99.90
40822;DHT22;26542;50.836;5.356;2023-03-08T06:48:24;2.50;99.90
40822;DHT22;26542;50.836;5.356;2023-03-08T06:50:50;2.50;99.90
40822;DHT22;26542;50.836;5.356;2023-03-08T06:53:15;2.50;99.90
40822;DHT22;26542;50.836;5.356;2023-03-08T06:55:41;2.60;99.90
40822;DHT22;26542;50.836;5.356;2023-03-08T06:58:08;2.80;99.90
40822;DHT22;26542;50.836;5.356;2023-03-08T07:00:38;2.60;99.90
40822;DHT22;26542;50.836;5.356;2023-03-08T07:03:06;2.60;99.90
40822;DHT22;26542;50.836;5.356;2023-03-08T07:05:32;2.50;99.90
40822;DHT22;26542;50.836;5.356;2023-03-08T07:08:03;2.50;99.90
40822;DHT22;26542;50.836;5.356;2023-03-08T07:10:31;2.30;99.90
40822;DHT22;26542;50.836;5.356;2023-03-08T07:12:57;2.40;99.90
40822;DHT22;26542;50.836;5.356;2023-03-08T07:15:23;2.40;99.90
40822;DHT22;26542;50.836;5.356;2023-03-08T07:17:51;2.30;99.90
40822;DHT22;26542;50.836;5.356;2023-03-08T07:20:21;2.60;99.90
40822;DHT22;26542;50.836;5.356;2023-03-08T07:22:46;2.40;99.90
40822;DHT22;26542;50.836;5.356;2023-03-08T07:25:14;2.40;99.90
40822;DHT22;26542;50.836;5.356;2023-03-08T07:27:40;2.40;99.90
40822;DHT22;26542;50.836;5.356;2023-03-08T07:30:06;2.70;99.90
40822;DHT22;26542;50.836;5.356;2023-03-08T07:32:36;2.40;99.90
40822;DHT22;26542;50.836;5.356;2023-03-08T07:35:05;2.50;99.90
40822;DHT22;26542;50.836;5.356;2023-03-08T07:37:34;2.50;99.90
40822;DHT22;26542;50.836;5.356;2023-03-08T07:40:03;2.60;99.90
40822;DHT22;26542;50.836;5.356;2023-03-08T07:42:32;2.60;99.90
40822;DHT22;26542;50.836;5.356;2023-03-08T07:44:57;2.70;99.90
40822;DHT22;26542;50.836;5.356;2023-03-08T07:47:23;2.70;99.90
40822;DHT22;26542;50.836;5.356;2023-03-08T07:49:53;2.70;99.90
40822;DHT22;26542;50.836;5.356;2023-03-08T07:52:26;2.70;99.90
40822;DHT22;26542;50.836;5.356;2023-03-08T07:54:52;2.90;99.90
40822;DHT22;26542;50.836;5.356;2023-03-08T07:57:17;2.80;99.90
40822;DHT22;26542;50.836;5.356;2023-03-08T07:59:43;2.80;99.90
40822;DHT22;26542;50.836;5.356;2023-03-08T08:02:13;2.90;99.90
40822;DHT22;26542;50.836;5.356;2023-03-08T08:04:41;2.90;99.90
40822;DHT22;26542;50.836;5.356;2023-03-08T08:07:11;2.90;99.90
40822;DHT22;26542;50.836;5.356;2023-03-08T08:09:37;2.90;99.90
40822;DHT22;26542;50.836;5.356;2023-03-08T08:12:04;2.90;99.90
40822;DHT22;26542;50.836;5.356;2023-03-08T08:14:29;3.00;99.90
40822;DHT22;26542;50.836;5.356;2023-03-08T08:16:56;3.00;99.90
40822;DHT22;26542;50.836;5.356;2023-03-08T08:19:26;3.00;99.90
40822;DHT22;26542;50.836;5.356;2023-03-08T08:21:53;3.10;99.90
40822;DHT22;26542;50.836;5.356;2023-03-08T08:24:20;3.20;99.90
40822;DHT22;26542;50.836;5.356;2023-03-08T08:26:48;3.20;99.90
40822;DHT22;26542;50.836;5.356;2023-03-08T08:29:14;3.30;99.90
40822;DHT22;26542;50.836;5.356;2023-03-08T08:31:40;3.30;99.90
40822;DHT22;26542;50.836;5.356;2023-03-08T08:34:08;3.20;99.90
40822;DHT22;26542;50.836;5.356;2023-03-08T08:36:38;3.20;99.90
40822;DHT22;26542;50.836;5.356;2023-03-08T08:39:03;3.30;99.90
40822;DHT22;26542;50.836;5.356;2023-03-08T08:41:31;3.20;99.90
40822;DHT22;26542;50.836;5.356;2023-03-08T08:43:58;3.20;99.90
40822;DHT22;26542;50.836;5.356;2023-03-08T08:46:25;3.20;99.90
40822;DHT22;26542;50.836;5.356;2023-03-08T08:48:53;3.20;99.90
40822;DHT22;26542;50.836;5.356;2023-03-08T08:51:19;3.30;99.90
40822;DHT22;26542;50.836;5.356;2023-03-08T08:53:48;3.40;99.90
40822;DHT22;26542;50.836;5.356;2023-03-08T08:56:16;3.40;99.90
40822;DHT22;26542;50.836;5.356;2023-03-08T08:58:43;3.40;99.90
40822;DHT22;26542;50.836;5.356;2023-03-08T09:01:16;3.40;99.90
40822;DHT22;26542;50.836;5.356;2023-03-08T09:03:43;3.50;99.90
40822;DHT22;26542;50.836;5.356;2023-03-08T09:06:09;3.60;99.90
40822;DHT22;26542;50.836;5.356;2023-03-08T09:08:35;3.70;99.90
40822;DHT22;26542;50.836;5.356;2023-03-08T09:11:03;3.70;99.90
40822;DHT22;26542;50.836;5.356;2023-03-08T09:13:29;3.70;99.90
40822;DHT22;26542;50.836;5.356;2023-03-08T09:15:55;3.70;99.90
40822;DHT22;26542;50.836;5.356;2023-03-08T09:18:20;3.80;99.90
40822;DHT22;26542;50.836;5.356;2023-03-08T09:20:46;3.90;99.90
40822;DHT22;26542;50.836;5.356;2023-03-08T09:23:14;3.70;99.90
40822;DHT22;26542;50.836;5.356;2023-03-08T09:25:42;3.70;99.90
40822;DHT22;26542;50.836;5.356;2023-03-08T09:28:09;3.70;99.90
40822;DHT22;26542;50.836;5.356;2023-03-08T09:30:35;3.50;99.90
40822;DHT22;26542;50.836;5.356;2023-03-08T09:33:01;3.50;99.90
40822;DHT22;26542;50.836;5.356;2023-03-08T09:35:28;3.40;99.90
40822;DHT22;26542;50.836;5.356;2023-03-08T09:37:56;3.50;99.90
40822;DHT22;26542;50.836;5.356;2023-03-08T09:40:25;3.50;99.90
40822;DHT22;26542;50.836;5.356;2023-03-08T09:42:52;3.50;99.90
40822;DHT22;26542;50.836;5.356;2023-03-08T09:45:28;3.60;99.90
40822;DHT22;26542;50.836;5.356;2023-03-08T09:48:14;3.70;99.90
40822;DHT22;26542;50.836;5.356;2023-03-08T09:53:33;3.90;99.90
40822;DHT22;26542;50.836;5.356;2023-03-08T09:56:16;3.90;99.90
40822;DHT22;26542;50.836;5.356;2023-03-08T09:59:49;3.90;99.90
40822;DHT22;26542;50.836;5.356;2023-03-08T10:02:03;3.80;99.90
40822;DHT22;26542;50.836;5.356;2023-03-08T10:04:45;3.80;99.90
40822;DHT22;26542;50.836;5.356;2023-03-08T10:13:42;3.90;99.90
40822;DHT22;26542;50.836;5.356;2023-03-08T10:15:53;3.90;99.90
40822;DHT22;26542;50.836;5.356;2023-03-08T10:20:56;3.90;99.90
40822;DHT22;26542;50.836;5.356;2023-03-08T10:23:23;4.00;99.90
40822;DHT22;26542;50.836;5.356;2023-03-08T10:25:50;4.10;99.90
40822;DHT22;26542;50.836;5.356;2023-03-08T10:28:21;4.20;99.90
40822;DHT22;26542;50.836;5.356;2023-03-08T10:30:53;4.30;99.90
40822;DHT22;26542;50.836;5.356;2023-03-08T10:33:21;4.30;99.90
40822;DHT22;26542;50.836;5.356;2023-03-08T10:35:53;4.10;99.90
40822;DHT22;26542;50.836;5.356;2023-03-08T10:38:22;4.00;99.90
40822;DHT22;26542;50.836;5.356;2023-03-08T10:41:04;3.90;99.90
40822;DHT22;26542;50.836;5.356;2023-03-08T10:43:35;4.00;99.90
40822;DHT22;26542;50.836;5.356;2023-03-08T10:46:16;4.00;99.90
40822;DHT22;26542;50.836;5.356;2023-03-08T10:48:42;4.00;99.90
40822;DHT22;26542;50.836;5.356;2023-03-08T10:51:26;4.10;99.90
40822;DHT22;26542;50.836;5.356;2023-03-08T10:54:00;4.30;99.90
40822;DHT22;26542;50.836;5.356;2023-03-08T10:59:05;4.50;99.90
40822;DHT22;26542;50.836;5.356;2023-03-08T11:01:46;4.40;99.90
40822;DHT22;26542;50.836;5.356;2023-03-08T11:04:17;4.50;99.90
40822;DHT22;26542;50.836;5.356;2023-03-08T11:06:43;4.50;99.90
40822;DHT22;26542;50.836;5.356;2023-03-08T11:09:29;4.70;99.90
40822;DHT22;26542;50.836;5.356;2023-03-08T11:11:59;4.70;99.90
40822;DHT22;26542;50.836;5.356;2023-03-08T11:14:36;4.70;99.90
40822;DHT22;26542;50.836;5.356;2023-03-08T11:17:14;4.80;99.90
40822;DHT22;26542;50.836;5.356;2023-03-08T11:20:03;4.80;99.90
40822;DHT22;26542;50.836;5.356;2023-03-08T11:25:58;5.10;99.90
40822;DHT22;26542;50.836;5.356;2023-03-08T11:28:17;5.00;99.90
40822;DHT22;26542;50.836;5.356;2023-03-08T11:31:12;5.00;99.90
40822;DHT22;26542;50.836;5.356;2023-03-08T11:36:21;5.00;99.90
40822;DHT22;26542;50.836;5.356;2023-03-08T11:38:57;4.90;99.90
40822;DHT22;26542;50.836;5.356;2023-03-08T11:58:39;4.80;99.90
40822;DHT22;26542;50.836;5.356;2023-03-08T12:01:27;4.80;99.90
40822;DHT22;26542;50.836;5.356;2023-03-08T12:04:02;5.00;99.90
40822;DHT22;26542;50.836;5.356;2023-03-08T12:06:34;4.90;99.90
40822;DHT22;26542;50.836;5.356;2023-03-08T12:15:23;4.80;99.90
40822;DHT22;26542;50.836;5.356;2023-03-08T12:17:59;4.90;99.90
40822;DHT22;26542;50.836;5.356;2023-03-08T12:20:30;5.00;99.90
40822;DHT22;26542;50.836;5.356;2023-03-08T12:25:39;5.10;99.90
40822;DHT22;26542;50.836;5.356;2023-03-08T12:31:07;5.10;99.90
40822;DHT22;26542;50.836;5.356;2023-03-08T12:33:36;4.80;99.90
40822;DHT22;26542;50.836;5.356;2023-03-08T12:36:04;5.10;99.90
40822;DHT22;26542;50.836;5.356;2023-03-08T12:38:42;5.30;99.90
40822;DHT22;26542;50.836;5.356;2023-03-08T12:41:29;5.20;99.90
40822;DHT22;26542;50.836;5.356;2023-03-08T12:44:22;5.30;99.90
40822;DHT22;26542;50.836;5.356;2023-03-08T12:47:01;5.30;99.90
40822;DHT22;26542;50.836;5.356;2023-03-08T12:49:45;5.20;99.90
40822;DHT22;26542;50.836;5.356;2023-03-08T12:57:30;5.50;99.90
40822;DHT22;26542;50.836;5.356;2023-03-08T13:03:43;5.40;99.90
40822;DHT22;26542;50.836;5.356;2023-03-08T13:05:46;5.40;99.90
40822;DHT22;26542;50.836;5.356;2023-03-08T13:11:02;5.50;99.90
40822;DHT22;26542;50.836;5.356;2023-03-08T13:18:44;5.50;99.90
40822;DHT22;26542;50.836;5.356;2023-03-08T13:23:52;5.50;99.90
40822;DHT22;26542;50.836;5.356;2023-03-08T13:27:14;5.60;99.90
40822;DHT22;26542;50.836;5.356;2023-03-08T13:29:14;5.60;99.90
40822;DHT22;26542;50.836;5.356;2023-03-08T13:31:42;5.60;99.90
40822;DHT22;26542;50.836;5.356;2023-03-08T13:34:33;5.50;99.90
40822;DHT22;26542;50.836;5.356;2023-03-08T13:37:00;5.60;99.90
40822;DHT22;26542;50.836;5.356;2023-03-08T13:39:31;5.50;99.90
40822;DHT22;26542;50.836;5.356;2023-03-08T13:42:09;5.50;99.90
40822;DHT22;26542;50.836;5.356;2023-03-08T13:44:36;5.60;99.90
40822;DHT22;26542;50.836;5.356;2023-03-08T13:49:46;5.60;99.90
40822;DHT22;26542;50.836;5.356;2023-03-08T13:52:30;5.60;99.90
40822;DHT22;26542;50.836;5.356;2023-03-08T13:54:59;5.60;99.90
40822;DHT22;26542;50.836;5.356;2023-03-08T13:57:35;5.50;99.90
40822;DHT22;26542;50.836;5.356;2023-03-08T14:02:45;5.50;99.90
40822;DHT22;26542;50.836;5.356;2023-03-08T14:05:22;5.50;99.90
40822;DHT22;26542;50.836;5.356;2023-03-08T14:08:02;5.60;99.90
40822;DHT22;26542;50.836;5.356;2023-03-08T14:11:12;5.60;99.90
40822;DHT22;26542;50.836;5.356;2023-03-08T14:13:45;5.60;99.90
40822;DHT22;26542;50.836;5.356;2023-03-08T14:18:51;5.50;99.90
40822;DHT22;26542;50.836;5.356;2023-03-08T14:21:20;5.50;99.90
40822;DHT22;26542;50.836;5.356;2023-03-08T14:24:14;5.60;99.90
40822;DHT22;26542;50.836;5.356;2023-03-08T14:26:54;5.50;99.90
40822;DHT22;26542;50.836;5.356;2023-03-08T14:29:21;5.60;99.90
40822;DHT22;26542;50.836;5.356;2023-03-08T14:34:43;5.60;99.90
40822;DHT22;26542;50.836;5.356;2023-03-08T14:37:29;5.70;99.90
40822;DHT22;26542;50.836;5.356;2023-03-08T14:42:59;5.60;99.90
40822;DHT22;26542;50.836;5.356;2023-03-08T14:45:40;5.60;99.90
40822;DHT22;26542;50.836;5.356;2023-03-08T14:48:28;5.60;99.90
40822;DHT22;26542;50.836;5.356;2023-03-08T14:53:37;5.60;99.90
40822;DHT22;26542;50.836;5.356;2023-03-08T14:56:14;5.60;99.90
40822;DHT22;26542;50.836;5.356;2023-03-08T14:58:42;5.60;99.90
40822;DHT22;26542;50.836;5.356;2023-03-08T15:01:08;5.50;99.90
40822;DHT22;26542;50.836;5.356;2023-03-08T15:03:34;5.40;99.90
40822;DHT22;26542;50.836;5.356;2023-03-08T15:06:06;5.40;99.90
40822;DHT22;26542;50.836;5.356;2023-03-08T15:08:35;5.40;99.90
40822;DHT22;26542;50.836;5.356;2023-03-08T15:11:00;5.50;99.90
40822;DHT22;26542;50.836;5.356;2023-03-08T15:13:26;5.50;99.90
40822;DHT22;26542;50.836;5.356;2023-03-08T15:15:52;5.50;99.90
40822;DHT22;26542;50.836;5.356;2023-03-08T15:18:17;5.50;99.90
40822;DHT22;26542;50.836;5.356;2023-03-08T15:20:46;5.40;99.90
40822;DHT22;26542;50.836;5.356;2023-03-08T15:23:21;5.50;99.90
40822;DHT22;26542;50.836;5.356;2023-03-08T15:25:48;5.50;99.90
40822;DHT22;26542;50.836;5.356;2023-03-08T15:28:15;5.40;99.90
40822;DHT22;26542;50.836;5.356;2023-03-08T15:30:41;5.50;99.90
40822;DHT22;26542;50.836;5.356;2023-03-08T15:33:06;5.50;99.90
40822;DHT22;26542;50.836;5.356;2023-03-08T15:35:32;5.40;99.90
40822;DHT22;26542;50.836;5.356;2023-03-08T15:38:02;5.40;99.90
40822;DHT22;26542;50.836;5.356;2023-03-08T15:40:30;5.30;99.90
40822;DHT22;26542;50.836;5.356;2023-03-08T15:42:56;5.30;99.90
40822;DHT22;26542;50.836;5.356;2023-03-08T15:45:23;5.30;99.90
40822;DHT22;26542;50.836;5.356;2023-03-08T15:48:01;5.30;99.90
40822;DHT22;26542;50.836;5.356;2023-03-08T15:50:29;5.30;99.90
40822;DHT22;26542;50.836;5.356;2023-03-08T15:52:56;5.40;99.90
40822;DHT22;26542;50.836;5.356;2023-03-08T15:55:26;5.40;99.90
40822;DHT22;26542;50.836;5.356;2023-03-08T15:57:52;5.30;99.90
40822;DHT22;26542;50.836;5.356;2023-03-08T16:00:19;5.30;99.90
40822;DHT22;26542;50.836;5.356;2023-03-08T16:02:45;5.40;99.90
40822;DHT22;26542;50.836;5.356;2023-03-08T16:05:13;5.30;99.90
40822;DHT22;26542;50.836;5.356;2023-03-08T16:07:39;5.40;99.90
40822;DHT22;26542;50.836;5.356;2023-03-08T16:10:07;5.40;99.90
40822;DHT22;26542;50.836;5.356;2023-03-08T16:12:33;5.30;99.90
40822;DHT22;26542;50.836;5.356;2023-03-08T16:14:59;5.30;99.90
40822;DHT22;26542;50.836;5.356;2023-03-08T16:17:25;5.30;99.90
40822;DHT22;26542;50.836;5.356;2023-03-08T16:19:53;5.40;99.90
40822;DHT22;26542;50.836;5.356;2023-03-08T16:22:22;5.40;99.90
40822;DHT22;26542;50.836;5.356;2023-03-08T16:24:48;5.40;99.90
40822;DHT22;26542;50.836;5.356;2023-03-08T16:27:14;5.50;99.90
40822;DHT22;26542;50.836;5.356;2023-03-08T16:29:39;5.50;99.90
40822;DHT22;26542;50.836;5.356;2023-03-08T16:32:11;5.40;99.90
40822;DHT22;26542;50.836;5.356;2023-03-08T16:34:37;5.40;99.90
40822;DHT22;26542;50.836;5.356;2023-03-08T16:37:04;5.30;99.90
40822;DHT22;26542;50.836;5.356;2023-03-08T16:39:35;5.30;99.90
40822;DHT22;26542;50.836;5.356;2023-03-08T16:42:00;5.40;99.90
40822;DHT22;26542;50.836;5.356;2023-03-08T16:44:28;5.40;99.90
40822;DHT22;26542;50.836;5.356;2023-03-08T16:46:54;5.40;99.90
40822;DHT22;26542;50.836;5.356;2023-03-08T16:49:21;5.30;99.90
40822;DHT22;26542;50.836;5.356;2023-03-08T16:51:55;5.40;99.90
40822;DHT22;26542;50.836;5.356;2023-03-08T16:54:24;5.30;99.90
40822;DHT22;26542;50.836;5.356;2023-03-08T16:56:50;5.30;99.90
40822;DHT22;26542;50.836;5.356;2023-03-08T16:59:23;5.40;99.90
40822;DHT22;26542;50.836;5.356;2023-03-08T17:01:49;5.40;99.90
40822;DHT22;26542;50.836;5.356;2023-03-08T17:04:14;5.40;99.90
40822;DHT22;26542;50.836;5.356;2023-03-08T17:06:43;5.40;99.90
40822;DHT22;26542;50.836;5.356;2023-03-08T17:09:11;5.30;99.90
40822;DHT22;26542;50.836;5.356;2023-03-08T17:11:37;5.40;99.90
40822;DHT22;26542;50.836;5.356;2023-03-08T17:14:08;5.40;99.90
40822;DHT22;26542;50.836;5.356;2023-03-08T17:16:39;5.40;99.90
40822;DHT22;26542;50.836;5.356;2023-03-08T17:19:06;5.40;99.90
40822;DHT22;26542;50.836;5.356;2023-03-08T17:21:35;5.40;99.90
40822;DHT22;26542;50.836;5.356;2023-03-08T17:24:08;5.30;99.90
40822;DHT22;26542;50.836;5.356;2023-03-08T17:26:40;5.20;99.90